createdAt,value
2022-09-28T00:00:01.089Z,26.80
2022-09-28T00:02:07.346Z,26.80
2022-09-28T00:04:22.297Z,26.80
2022-09-28T00:06:29.354Z,26.90
2022-09-28T00:08:34.389Z,26.70
2022-09-28T00:10:39.773Z,26.70
2022-09-28T00:12:45.934Z,26.80
2022-09-28T00:14:50.833Z,26.90
2022-09-28T00:16:55.831Z,26.90
2022-09-28T00:19:00.630Z,26.90
2022-09-28T00:21:07.386Z,26.90
2022-09-28T00:23:15.827Z,26.90
2022-09-28T00:25:29.067Z,26.90
2022-09-28T00:27:33.160Z,26.80
2022-09-28T00:29:42.150Z,26.80
2022-09-28T00:31:47.336Z,26.80
2022-09-28T00:33:52.360Z,26.80
2022-09-28T00:35:57.646Z,26.80
2022-09-28T00:38:22.113Z,26.90
2022-09-28T00:40:33.523Z,26.80
2022-09-28T00:42:57.521Z,26.80
2022-09-28T00:45:11.067Z,26.80
2022-09-28T00:47:43.195Z,26.80
2022-09-28T00:50:00.748Z,26.90
2022-09-28T00:52:07.707Z,26.80
2022-09-28T00:54:16.231Z,26.90
2022-09-28T00:56:27.836Z,26.90
2022-09-28T00:58:40.497Z,26.90
2022-09-28T01:00:46.006Z,26.90
2022-09-28T01:02:55.154Z,26.80
2022-09-28T01:05:02.388Z,26.90
2022-09-28T01:07:08.618Z,26.90
2022-09-28T01:09:32.735Z,26.90
2022-09-28T01:11:52.581Z,26.90
2022-09-28T01:14:16.214Z,26.90
2022-09-28T01:16:46.013Z,26.90
2022-09-28T01:19:26.831Z,26.90
2022-09-28T01:21:32.679Z,26.80
2022-09-28T01:24:03.454Z,26.80
2022-09-28T01:26:15.403Z,26.70
2022-09-28T01:28:27.030Z,26.70
2022-09-28T01:30:32.126Z,26.70
2022-09-28T01:32:44.828Z,26.70
2022-09-28T01:35:01.340Z,26.90
2022-09-28T01:37:07.495Z,26.70
2022-09-28T01:39:17.908Z,26.80
2022-09-28T01:41:23.467Z,26.90
2022-09-28T01:43:29.967Z,27.00
2022-09-28T01:45:35.269Z,27.00
2022-09-28T01:47:40.940Z,26.90
2022-09-28T01:49:53.453Z,26.90
2022-09-28T01:52:21.826Z,26.90
2022-09-28T01:54:40.603Z,26.80
2022-09-28T01:56:47.048Z,26.70
2022-09-28T01:58:52.837Z,26.70
2022-09-28T02:01:01.804Z,26.80
2022-09-28T02:03:19.786Z,26.70
2022-09-28T02:05:33.559Z,26.80
2022-09-28T02:07:46.203Z,26.70
2022-09-28T02:09:57.158Z,26.70
2022-09-28T02:12:10.580Z,26.70
2022-09-28T02:14:15.866Z,26.70
2022-09-28T02:16:24.312Z,26.90
2022-09-28T02:18:29.642Z,26.80
2022-09-28T02:20:34.454Z,27.00
2022-09-28T02:22:47.079Z,27.00
2022-09-28T02:24:54.656Z,26.90
2022-09-28T02:27:15.181Z,26.90
2022-09-28T02:29:22.543Z,26.90
2022-09-28T02:31:31.789Z,26.90
2022-09-28T02:33:38.553Z,26.90
2022-09-28T02:35:43.525Z,26.90
2022-09-28T02:37:48.310Z,26.90
2022-09-28T02:39:55.306Z,26.90
2022-09-28T02:42:21.338Z,26.90
2022-09-28T02:44:41.315Z,26.90
2022-09-28T02:47:06.186Z,26.90
2022-09-28T02:49:39.794Z,26.90
2022-09-28T02:51:56.418Z,26.80
2022-09-28T02:54:20.589Z,26.90
2022-09-28T02:56:45.102Z,26.90
2022-09-28T02:59:05.457Z,26.80
2022-09-28T03:01:31.445Z,26.80
2022-09-28T03:03:41.165Z,26.90
2022-09-28T03:06:06.380Z,26.90
2022-09-28T03:08:39.737Z,27.00
2022-09-28T03:10:53.382Z,27.00
2022-09-28T03:13:02.846Z,27.10
2022-09-28T03:15:25.870Z,27.10
2022-09-28T03:17:32.994Z,27.10
2022-09-28T03:19:38.714Z,27.10
2022-09-28T03:22:02.713Z,27.00
2022-09-28T03:24:12.235Z,27.00
2022-09-28T03:26:21.073Z,26.80
2022-09-28T03:28:40.774Z,26.80
2022-09-28T03:30:55.583Z,26.80
2022-09-28T03:33:07.969Z,26.80
2022-09-28T03:35:28.020Z,26.90
2022-09-28T03:37:39.356Z,26.80
2022-09-28T03:39:50.966Z,26.80
2022-09-28T03:42:06.475Z,26.80
2022-09-28T03:44:27.813Z,26.80
2022-09-28T03:46:35.406Z,26.80
2022-09-28T03:48:45.643Z,26.80
2022-09-28T03:50:58.115Z,26.90
2022-09-28T03:53:05.321Z,27.00
2022-09-28T03:55:24.104Z,27.00
2022-09-28T03:57:28.725Z,26.90
2022-09-28T03:59:33.143Z,26.90
2022-09-28T04:01:52.472Z,26.90
2022-09-28T04:04:14.557Z,26.80
2022-09-28T04:06:21.473Z,26.70
2022-09-28T04:08:26.039Z,26.70
2022-09-28T04:10:30.804Z,26.70
2022-09-28T04:12:34.866Z,26.90
2022-09-28T04:14:48.793Z,26.80
2022-09-28T04:24:12.516Z,26.80
2022-09-28T04:26:27.057Z,26.70
2022-09-28T04:28:55.623Z,26.90
2022-09-28T04:33:28.524Z,26.90
2022-09-28T04:35:33.874Z,26.90
2022-09-28T04:37:38.962Z,26.90
2022-09-28T04:39:47.589Z,27.00
2022-09-28T04:41:55.091Z,27.00
2022-09-28T04:43:59.823Z,27.10
2022-09-28T04:46:07.136Z,27.00
2022-09-28T04:48:20.495Z,27.10
2022-09-28T04:50:36.924Z,27.20
2022-09-28T04:52:52.978Z,27.10
2022-09-28T04:54:58.038Z,27.10
2022-09-28T04:57:06.940Z,27.20
2022-09-28T04:59:11.303Z,27.00
2022-09-28T05:01:25.253Z,27.00
2022-09-28T05:03:47.795Z,27.10
2022-09-28T05:06:02.650Z,27.10
2022-09-28T05:08:20.710Z,27.00
2022-09-28T05:10:29.842Z,26.90
2022-09-28T05:12:34.389Z,26.90
2022-09-28T05:14:45.769Z,26.90
2022-09-28T05:17:03.483Z,27.10
2022-09-28T05:19:23.049Z,27.00
2022-09-28T05:21:30.208Z,27.00
2022-09-28T05:23:34.700Z,26.90
2022-09-28T05:25:44.504Z,27.00
2022-09-28T05:27:58.014Z,27.10
2022-09-28T05:30:23.838Z,27.30
2022-09-28T05:33:01.458Z,27.40
2022-09-28T05:35:28.463Z,27.30
2022-09-28T05:37:39.908Z,27.30
2022-09-28T05:39:44.144Z,27.20
2022-09-28T05:41:50.805Z,27.30
2022-09-28T05:43:55.994Z,27.20
2022-09-28T05:46:02.472Z,27.30
2022-09-28T05:48:09.690Z,27.40
2022-09-28T05:50:17.059Z,27.40
2022-09-28T05:52:22.010Z,27.30
2022-09-28T05:54:26.447Z,27.30
2022-09-28T05:56:34.028Z,27.40
2022-09-28T05:58:41.271Z,27.30
2022-09-28T06:00:46.234Z,27.30
2022-09-28T06:03:04.365Z,27.40
2022-09-28T06:05:15.737Z,27.40
2022-09-28T06:07:21.893Z,27.40
2022-09-28T06:09:35.489Z,27.40
2022-09-28T06:11:56.267Z,27.30
2022-09-28T06:14:08.612Z,27.30
2022-09-28T06:16:17.333Z,27.30
2022-09-28T06:18:22.157Z,27.20
2022-09-28T06:20:39.126Z,27.30
2022-09-28T06:22:51.666Z,27.30
2022-09-28T06:24:55.772Z,27.30
2022-09-28T06:27:01.474Z,27.40
2022-09-28T06:29:06.389Z,27.40
2022-09-28T06:31:13.269Z,27.30
2022-09-28T06:33:26.555Z,27.30
2022-09-28T06:35:31.765Z,27.30
2022-09-28T06:37:38.122Z,27.30
2022-09-28T06:39:42.485Z,27.30
2022-09-28T06:41:46.371Z,27.20
2022-09-28T06:43:54.391Z,27.30
2022-09-28T06:46:11.121Z,27.30
2022-09-28T06:48:35.049Z,27.30
2022-09-28T06:50:40.798Z,27.30
2022-09-28T06:53:04.610Z,27.30
2022-09-28T06:55:21.367Z,27.30
2022-09-28T06:57:30.534Z,27.20
2022-09-28T06:59:34.525Z,27.20
2022-09-28T07:01:38.820Z,27.20
2022-09-28T07:03:47.187Z,27.10
2022-09-28T07:06:21.469Z,27.00
2022-09-28T07:08:37.861Z,27.10
2022-09-28T07:11:02.293Z,27.00
2022-09-28T07:13:42.487Z,27.00
2022-09-28T07:15:46.764Z,27.00
2022-09-28T07:18:02.614Z,27.10
2022-09-28T07:20:18.302Z,26.90
2022-09-28T07:22:37.895Z,26.90
2022-09-28T07:24:51.006Z,26.90
2022-09-28T07:27:31.271Z,26.90
2022-09-28T07:29:56.559Z,27.00
2022-09-28T07:32:21.473Z,27.00
2022-09-28T07:34:44.739Z,27.00
2022-09-28T07:37:13.501Z,27.00
2022-09-28T07:39:23.026Z,26.90
2022-09-28T07:41:39.388Z,26.90
2022-09-28T07:43:54.676Z,26.90
2022-09-28T07:46:18.723Z,26.90
2022-09-28T07:48:37.666Z,26.80
2022-09-28T07:50:56.100Z,26.80
2022-09-28T07:53:10.144Z,26.80
2022-09-28T07:55:34.054Z,26.80
2022-09-28T07:57:56.246Z,26.90
2022-09-28T08:00:12.912Z,26.70
2022-09-28T08:02:23.405Z,26.70
2022-09-28T08:04:29.323Z,26.70
2022-09-28T08:06:34.134Z,26.60
2022-09-28T08:08:40.177Z,26.60
2022-09-28T08:10:46.879Z,26.60
2022-09-28T08:13:06.412Z,26.50
2022-09-28T08:15:17.655Z,26.50
2022-09-28T08:17:41.093Z,26.40
2022-09-28T08:19:57.493Z,26.50
2022-09-28T08:22:01.404Z,26.40
2022-09-28T08:24:06.658Z,26.40
2022-09-28T08:26:15.926Z,26.40
2022-09-28T08:28:33.547Z,26.50
2022-09-28T08:30:53.091Z,26.50
2022-09-28T08:33:08.938Z,26.40
2022-09-28T08:35:38.890Z,26.40
2022-09-28T08:38:04.258Z,26.40
2022-09-28T08:40:45.863Z,26.40
2022-09-28T08:43:29.722Z,26.50
2022-09-28T08:46:02.592Z,26.40
2022-09-28T08:48:36.924Z,26.40
2022-09-28T08:51:00.087Z,26.40
2022-09-28T08:53:55.674Z,26.40
2022-09-28T08:56:07.594Z,26.40
2022-09-28T08:58:16.803Z,26.40
2022-09-28T09:00:32.613Z,26.30
2022-09-28T09:02:49.682Z,26.40
2022-09-28T09:05:00.794Z,26.40
2022-09-28T09:07:58.585Z,26.30
2022-09-28T09:10:17.361Z,26.30
2022-09-28T09:12:40.406Z,26.20
2022-09-28T09:15:05.907Z,26.20
2022-09-28T09:17:16.232Z,26.20
2022-09-28T09:20:03.199Z,26.30
2022-09-28T09:22:53.016Z,26.40
2022-09-28T09:25:26.469Z,26.40
2022-09-28T09:27:54.380Z,26.40
2022-09-28T09:30:05.069Z,26.40
2022-09-28T09:32:32.734Z,26.40
2022-09-28T09:34:49.331Z,26.40
2022-09-28T09:37:19.082Z,26.40
2022-09-28T09:39:42.293Z,26.20
2022-09-28T09:42:18.771Z,26.20
2022-09-28T09:44:57.987Z,26.30
2022-09-28T09:47:18.909Z,26.20
2022-09-28T09:49:36.098Z,26.20
2022-09-28T09:51:42.995Z,26.10
2022-09-28T09:54:00.957Z,26.10
2022-09-28T09:56:25.903Z,26.10
2022-09-28T09:58:52.015Z,26.20
2022-09-28T10:01:04.022Z,26.20
2022-09-28T10:03:28.595Z,26.20
2022-09-28T10:05:41.708Z,26.10
2022-09-28T10:07:56.531Z,26.10
2022-09-28T10:10:02.145Z,26.20
2022-09-28T10:12:21.059Z,26.20
2022-09-28T10:14:25.437Z,26.20
2022-09-28T10:16:44.525Z,26.40
2022-09-28T10:19:14.907Z,26.20
2022-09-28T10:21:31.947Z,26.20
2022-09-28T10:23:44.176Z,26.20
2022-09-28T10:25:48.879Z,26.20
2022-09-28T10:27:53.539Z,26.20
2022-09-28T10:30:09.942Z,26.20
2022-09-28T10:32:36.711Z,26.30
2022-09-28T10:34:41.579Z,26.20
2022-09-28T10:37:01.013Z,26.40
2022-09-28T10:39:34.954Z,26.40
2022-09-28T10:41:40.052Z,26.50
2022-09-28T10:44:07.123Z,26.50
2022-09-28T10:46:24.773Z,26.50
2022-09-28T10:48:34.031Z,26.50
2022-09-28T10:50:40.218Z,26.50
2022-09-28T10:52:49.539Z,26.50
2022-09-28T10:55:24.376Z,26.60
2022-09-28T10:57:30.139Z,26.60
2022-09-28T10:59:42.624Z,26.50
2022-09-28T11:02:14.439Z,26.60
2022-09-28T11:04:20.761Z,26.60
2022-09-28T11:06:25.780Z,26.60
2022-09-28T11:08:30.865Z,26.60
2022-09-28T11:10:38.334Z,26.50
2022-09-28T11:12:49.636Z,26.50
2022-09-28T11:15:03.313Z,26.50
2022-09-28T11:17:19.818Z,26.40
2022-09-28T11:19:28.685Z,26.40
2022-09-28T11:21:43.905Z,26.30
2022-09-28T11:24:02.270Z,26.30
2022-09-28T11:26:07.864Z,26.40
2022-09-28T11:28:19.665Z,26.30
2022-09-28T11:30:41.540Z,26.40
2022-09-28T11:33:06.494Z,26.30
2022-09-28T11:35:24.902Z,26.20
2022-09-28T11:37:38.746Z,26.20
2022-09-28T11:39:56.354Z,26.20
2022-09-28T11:42:24.655Z,26.10
2022-09-28T11:44:38.995Z,26.00
2022-09-28T11:47:24.756Z,26.10
2022-09-28T11:49:37.937Z,26.00
2022-09-28T11:51:41.965Z,26.10
2022-09-28T11:53:48.940Z,26.20
2022-09-28T11:55:57.619Z,26.40
2022-09-28T11:58:03.278Z,26.40
2022-09-28T12:00:11.574Z,26.40
2022-09-28T12:02:25.385Z,26.30
2022-09-28T12:04:39.466Z,26.20
2022-09-28T12:06:48.165Z,26.30
2022-09-28T12:08:56.869Z,26.30
2022-09-28T12:11:16.610Z,26.40
2022-09-28T12:13:36.689Z,26.40
2022-09-28T12:16:11.531Z,26.40
2022-09-28T12:18:08.785Z,26.40
2022-09-28T12:20:22.554Z,26.40
2022-09-28T12:22:31.382Z,26.40
2022-09-28T12:24:38.026Z,26.50
2022-09-28T12:27:06.006Z,26.40
2022-09-28T12:29:25.885Z,26.40
2022-09-28T12:31:39.475Z,26.50
2022-09-28T12:34:03.159Z,26.50
2022-09-28T12:36:22.078Z,26.50
2022-09-28T12:38:50.855Z,26.50
2022-09-28T12:41:20.750Z,26.50
2022-09-28T12:43:44.443Z,26.60
2022-09-28T12:46:11.653Z,26.50
2022-09-28T12:48:27.824Z,26.60
2022-09-28T12:50:39.068Z,26.60
2022-09-28T12:52:53.548Z,26.60
2022-09-28T12:55:03.701Z,26.60
2022-09-28T12:57:27.452Z,26.50
2022-09-28T12:59:37.337Z,26.40
2022-09-28T13:01:53.829Z,26.40
2022-09-28T13:04:04.656Z,26.20
2022-09-28T13:06:17.417Z,26.00
2022-09-28T13:08:41.461Z,26.00
2022-09-28T13:10:58.137Z,26.00
2022-09-28T13:13:14.810Z,25.80
2022-09-28T13:15:31.333Z,25.90
2022-09-28T13:17:44.471Z,25.70
2022-09-28T13:20:05.366Z,25.70
2022-09-28T13:22:14.970Z,25.60
2022-09-28T13:24:32.062Z,25.70
2022-09-28T13:26:38.382Z,25.90
2022-09-28T13:28:43.220Z,25.80
2022-09-28T13:30:47.660Z,25.90
2022-09-28T13:32:51.704Z,25.70
2022-09-28T13:34:56.269Z,25.70
2022-09-28T13:37:12.513Z,25.60
2022-09-28T13:39:37.731Z,25.70
2022-09-28T13:41:48.374Z,25.60
2022-09-28T13:44:04.642Z,25.70
2022-09-28T13:46:14.999Z,25.80
2022-09-28T13:48:21.284Z,25.90
2022-09-28T13:50:29.499Z,25.80
2022-09-28T13:52:46.001Z,25.80
2022-09-28T13:54:52.979Z,25.80
2022-09-28T13:57:10.434Z,25.90
2022-09-28T13:59:24.823Z,25.80
2022-09-28T14:01:33.709Z,25.70
2022-09-28T14:03:58.283Z,25.70
2022-09-28T14:06:09.062Z,25.70
2022-09-28T14:08:25.227Z,25.80
2022-09-28T14:10:41.774Z,25.70
2022-09-28T14:12:47.330Z,25.70
2022-09-28T14:14:52.955Z,25.70
2022-09-28T14:17:09.309Z,25.70
2022-09-28T14:19:32.316Z,25.80
2022-09-28T14:21:42.951Z,25.80
2022-09-28T14:23:59.090Z,25.70
2022-09-28T14:26:16.589Z,25.70
2022-09-28T14:28:35.344Z,25.70
2022-09-28T14:30:49.192Z,25.80
2022-09-28T14:33:00.889Z,25.90
2022-09-28T14:35:05.970Z,25.90
2022-09-28T14:37:38.431Z,25.70
2022-09-28T14:39:57.338Z,25.80
2022-09-28T14:42:13.869Z,25.70
2022-09-28T14:44:23.140Z,25.80
2022-09-28T14:46:31.627Z,25.70
2022-09-28T14:48:55.736Z,25.80
2022-09-28T14:51:05.092Z,25.60
2022-09-28T14:53:15.857Z,25.60
2022-09-28T14:55:29.049Z,25.70
2022-09-28T14:57:33.009Z,25.50
2022-09-28T14:59:44.470Z,25.50
2022-09-28T15:01:53.700Z,25.50
2022-09-28T15:03:58.303Z,25.60
2022-09-28T15:06:02.530Z,25.60
2022-09-28T15:08:10.320Z,25.60
2022-09-28T15:10:29.204Z,25.50
2022-09-28T15:12:34.187Z,25.60
2022-09-28T15:14:42.953Z,25.60
2022-09-28T15:16:48.011Z,25.60
2022-09-28T15:18:59.787Z,25.60
2022-09-28T15:21:04.029Z,25.70
2022-09-28T15:23:23.781Z,25.70
2022-09-28T15:25:29.716Z,25.60
2022-09-28T15:27:37.547Z,25.70
2022-09-28T15:29:42.004Z,25.70
2022-09-28T15:31:46.002Z,25.70
2022-09-28T15:34:02.180Z,25.70
2022-09-28T15:36:08.049Z,25.60
2022-09-28T15:38:12.406Z,25.70
2022-09-28T15:40:17.688Z,25.80
2022-09-28T15:42:22.244Z,25.70
2022-09-28T15:44:30.279Z,25.80
2022-09-28T15:46:37.544Z,25.90
2022-09-28T15:48:52.703Z,25.90
2022-09-28T15:51:13.581Z,25.90
2022-09-28T15:53:18.953Z,25.90
2022-09-28T15:55:27.794Z,25.90
2022-09-28T15:57:39.146Z,25.90
2022-09-28T15:59:44.835Z,25.80
2022-09-28T16:01:49.036Z,25.90
2022-09-28T16:03:53.022Z,25.90
2022-09-28T16:06:15.696Z,26.00
2022-09-28T16:08:25.779Z,25.90
2022-09-28T16:10:34.500Z,25.80
2022-09-28T16:12:55.081Z,25.70
2022-09-28T16:14:59.150Z,25.60
2022-09-28T16:17:04.988Z,25.60
2022-09-28T16:19:14.311Z,25.60
2022-09-28T16:21:30.594Z,25.50
2022-09-28T16:23:35.207Z,25.60
2022-09-28T16:25:40.625Z,25.60
2022-09-28T16:27:45.545Z,25.60
2022-09-28T16:30:04.527Z,25.60
2022-09-28T16:32:25.301Z,25.60
2022-09-28T16:34:31.126Z,25.50
2022-09-28T16:36:44.351Z,25.40
2022-09-28T16:38:49.778Z,25.40
2022-09-28T16:40:54.893Z,25.30
2022-09-28T16:42:59.671Z,25.30
2022-09-28T16:45:08.907Z,25.40
2022-09-28T16:47:13.879Z,25.30
2022-09-28T16:49:20.890Z,25.40
2022-09-28T16:51:25.250Z,25.40
2022-09-28T16:53:43.750Z,25.30
2022-09-28T16:55:47.755Z,25.20
2022-09-28T16:57:51.703Z,25.20
2022-09-28T16:59:55.877Z,25.30
2022-09-28T17:02:01.130Z,25.20
2022-09-28T17:04:05.627Z,25.10
2022-09-28T17:06:10.567Z,25.00
2022-09-28T17:08:18.291Z,25.10
2022-09-28T17:10:26.985Z,25.10
2022-09-28T17:12:31.203Z,25.10
2022-09-28T17:14:35.089Z,25.10
2022-09-28T17:17:06.942Z,25.20
2022-09-28T17:19:04.461Z,25.20
2022-09-28T17:21:16.681Z,25.20
2022-09-28T17:25:29.379Z,25.20
2022-09-28T17:27:33.642Z,25.20
2022-09-28T17:29:38.604Z,25.20
2022-09-28T17:31:44.019Z,25.10
2022-09-28T17:33:47.898Z,25.10
2022-09-28T17:35:52.711Z,25.10
2022-09-28T17:37:56.753Z,25.10
2022-09-28T17:40:00.481Z,25.20
2022-09-28T17:42:04.766Z,25.20
2022-09-28T17:44:09.370Z,25.10
2022-09-28T17:46:28.187Z,25.10
2022-09-28T17:48:34.733Z,25.10
2022-09-28T17:50:44.354Z,25.00
2022-09-28T17:52:54.075Z,25.00
2022-09-28T17:54:57.879Z,25.00
2022-09-28T17:57:03.219Z,25.10
2022-09-28T17:59:15.386Z,24.90
2022-09-28T18:01:19.308Z,25.00
2022-09-28T18:03:25.003Z,25.10
2022-09-28T18:05:31.296Z,25.10
2022-09-28T18:07:36.750Z,25.10
2022-09-28T18:09:41.248Z,25.10
2022-09-28T18:11:47.045Z,25.10
2022-09-28T18:13:51.231Z,25.10
2022-09-28T18:15:56.073Z,25.10
2022-09-28T18:18:00.497Z,25.20
2022-09-28T18:20:05.393Z,25.20
2022-09-28T18:22:10.819Z,25.20
2022-09-28T18:24:30.358Z,25.20
2022-09-28T18:26:38.404Z,25.20
2022-09-28T18:28:42.797Z,25.20
2022-09-28T18:30:49.384Z,25.20
2022-09-28T18:32:53.485Z,25.10
2022-09-28T18:34:57.853Z,25.00
2022-09-28T18:37:03.815Z,25.00
2022-09-28T18:39:07.861Z,25.00
2022-09-28T18:41:16.598Z,24.90
2022-09-28T18:43:20.514Z,24.90
2022-09-28T18:45:24.834Z,24.90
2022-09-28T18:47:28.893Z,25.00
2022-09-28T18:49:34.531Z,24.90
2022-09-28T18:51:39.653Z,25.00
2022-09-28T18:53:43.600Z,25.00
2022-09-28T18:55:48.499Z,25.00
2022-09-28T18:57:53.393Z,25.00
2022-09-28T18:59:58.251Z,25.00
2022-09-28T19:02:03.278Z,25.00
2022-09-28T19:04:15.950Z,25.00
2022-09-28T19:06:20.864Z,25.00
2022-09-28T19:08:27.637Z,25.00
2022-09-28T19:10:31.917Z,24.90
2022-09-28T19:12:36.550Z,24.80
2022-09-28T19:14:40.670Z,24.90
2022-09-28T19:16:47.901Z,24.80
2022-09-28T19:18:56.141Z,24.80
2022-09-28T19:21:03.033Z,24.80
2022-09-28T19:23:07.696Z,24.80
2022-09-28T19:25:12.178Z,24.60
2022-09-28T19:27:18.305Z,24.70
2022-09-28T19:29:22.778Z,24.70
2022-09-28T19:31:26.941Z,24.50
2022-09-28T19:33:32.578Z,24.40
2022-09-28T19:35:36.988Z,24.40
2022-09-28T19:37:42.935Z,24.40
2022-09-28T19:39:47.982Z,24.50
2022-09-28T19:41:55.710Z,24.50
2022-09-28T19:43:59.703Z,24.40
2022-09-28T19:46:07.027Z,24.50
2022-09-28T19:48:10.938Z,24.50
2022-09-28T19:50:15.693Z,24.50
2022-09-28T19:52:19.930Z,24.50
2022-09-28T19:54:26.380Z,24.50
2022-09-28T19:56:33.748Z,24.50
2022-09-28T19:58:37.830Z,24.50
2022-09-28T20:00:41.894Z,24.50
2022-09-28T20:02:46.006Z,24.50
2022-09-28T20:05:06.385Z,24.50
2022-09-28T20:07:10.906Z,24.40
2022-09-28T20:09:15.058Z,24.30
2022-09-28T20:11:20.628Z,24.20
2022-09-28T20:13:25.322Z,24.30
2022-09-28T20:15:29.748Z,24.40
2022-09-28T20:17:36.517Z,24.30
2022-09-28T20:19:43.883Z,24.40
2022-09-28T20:21:49.209Z,24.40
2022-09-28T20:23:57.957Z,24.40
2022-09-28T20:26:10.942Z,24.30
2022-09-28T20:28:17.843Z,24.40
2022-09-28T20:30:24.316Z,24.40
2022-09-28T20:32:49.659Z,24.40
2022-09-28T20:34:55.394Z,24.50
2022-09-28T20:37:04.127Z,24.60
2022-09-28T20:39:12.269Z,24.50
2022-09-28T20:41:18.995Z,24.50
2022-09-28T20:43:32.344Z,24.50
2022-09-28T20:45:45.855Z,24.50
2022-09-28T20:47:50.788Z,24.40
2022-09-28T20:49:55.139Z,24.40
2022-09-28T20:52:00.320Z,24.40
2022-09-28T20:54:05.502Z,24.40
2022-09-28T20:56:13.753Z,24.40
2022-09-28T20:58:19.255Z,24.30
2022-09-28T21:00:23.795Z,24.40
2022-09-28T21:02:32.287Z,24.40
2022-09-28T21:04:37.133Z,24.50
2022-09-28T21:06:41.722Z,24.50
2022-09-28T21:08:46.917Z,24.50
2022-09-28T21:10:54.833Z,24.50
2022-09-28T21:12:59.698Z,24.50
2022-09-28T21:15:06.163Z,24.50
2022-09-28T21:17:17.378Z,24.50
2022-09-28T21:19:30.484Z,24.40
2022-09-28T21:21:43.317Z,24.40
2022-09-28T21:23:49.472Z,24.40
2022-09-28T21:26:07.599Z,24.30
2022-09-28T21:28:11.933Z,24.40
2022-09-28T21:30:16.333Z,24.40
2022-09-28T21:32:21.939Z,24.40
2022-09-28T21:34:29.816Z,24.50
2022-09-28T21:36:35.651Z,24.50
2022-09-28T21:38:40.916Z,24.50
2022-09-28T21:40:47.254Z,24.50
2022-09-28T21:43:00.258Z,24.40
2022-09-28T21:45:04.083Z,24.40
2022-09-28T21:47:10.505Z,24.40
2022-09-28T21:49:16.956Z,24.40
2022-09-28T21:51:22.078Z,24.40
2022-09-28T21:53:26.427Z,24.50
2022-09-28T21:55:35.223Z,24.50
2022-09-28T21:57:39.850Z,24.40
2022-09-28T21:59:49.079Z,24.40
2022-09-28T22:01:54.006Z,24.40
2022-09-28T22:03:59.035Z,24.50
2022-09-28T22:06:05.558Z,24.50
2022-09-28T22:08:11.964Z,24.40
2022-09-28T22:10:16.594Z,24.40
2022-09-28T22:12:21.225Z,24.40
2022-09-28T22:14:26.833Z,24.30
2022-09-28T22:16:33.216Z,24.30
2022-09-28T22:18:37.499Z,24.40
2022-09-28T22:20:44.221Z,24.30
2022-09-28T22:22:51.930Z,24.40
2022-09-28T22:24:57.042Z,24.40
2022-09-28T22:27:01.406Z,24.30
2022-09-28T22:29:06.717Z,24.40
2022-09-28T22:31:17.190Z,24.40
2022-09-28T22:33:23.132Z,24.40
2022-09-28T22:35:30.369Z,24.40
2022-09-28T22:37:39.806Z,24.20
2022-09-28T22:39:47.317Z,24.30
2022-09-28T22:41:53.582Z,24.30
2022-09-28T22:44:00.138Z,24.40
2022-09-28T22:46:13.970Z,24.40
2022-09-28T22:48:19.658Z,24.40
2022-09-28T22:50:26.530Z,24.30
2022-09-28T22:52:34.674Z,24.30
2022-09-28T22:54:58.530Z,24.30
2022-09-28T22:57:03.245Z,24.20
2022-09-28T22:59:13.108Z,24.30
2022-09-28T23:01:27.476Z,24.30
2022-09-28T23:03:32.031Z,24.30
2022-09-28T23:05:37.259Z,24.30
2022-09-28T23:07:48.677Z,24.40
2022-09-28T23:10:02.412Z,24.30
2022-09-28T23:12:07.904Z,24.30
2022-09-28T23:14:14.061Z,24.30
2022-09-28T23:16:27.524Z,24.20
2022-09-28T23:18:35.631Z,24.20
2022-09-28T23:20:46.446Z,24.20
2022-09-28T23:22:50.598Z,24.10
2022-09-28T23:24:54.626Z,24.10
2022-09-28T23:26:59.117Z,24.30
2022-09-28T23:29:02.996Z,24.30
2022-09-28T23:31:10.979Z,24.30
2022-09-28T23:33:15.422Z,24.30
2022-09-28T23:35:19.956Z,24.30
2022-09-28T23:37:23.808Z,24.30
2022-09-28T23:39:27.981Z,24.30
2022-09-28T23:41:32.450Z,24.40
2022-09-28T23:43:37.253Z,24.40
2022-09-28T23:45:41.564Z,24.40
2022-09-28T23:47:45.659Z,24.40
2022-09-28T23:49:49.670Z,24.50
2022-09-28T23:51:53.634Z,24.50
2022-09-28T23:53:57.532Z,24.50
2022-09-28T23:56:01.906Z,24.50
2022-09-28T23:58:05.746Z,24.60
